Time;durP1;ratioP1;P1;durP2;ratioP2;P2;SDS_P1;SDS_P2;PMS_P1;PMS_P2;Temp;Humidity;BMP_temperature;BMP_pressure;BME280_temperature;BME280_humidity;BME280_pressure;Samples;Min_cycle;Max_cycle;Signal;HPM_P1;HPM_P2
2023/01/03 00:00:05;;;;;;;19.77;12.50;;;;;;;1.50;100.00;102354.09;5014460;28;20519;-61
2023/01/03 00:02:31;;;;;;;19.40;12.02;;;;;;;1.81;100.00;102418.13;5014622;28;20430;-62
2023/01/03 00:04:56;;;;;;;17.75;12.40;;;;;;;1.56;100.00;102377.63;5015088;28;20065;-63
2023/01/03 00:07:34;;;;;;;20.55;12.10;;;;;;;1.81;100.00;102419.88;5014643;28;20034;-62
2023/01/03 00:10:08;;;;;;;20.40;12.77;;;;;;;1.76;100.00;102411.03;5014464;28;20040;-62
2023/01/03 00:12:35;;;;;;;21.83;13.27;;;;;;;1.76;100.00;102411.94;5014421;28;20038;-62
2023/01/03 00:15:00;;;;;;;20.48;12.60;;;;;;;1.74;100.00;102429.19;4996991;28;20473;-63
2023/01/03 00:17:26;;;;;;;25.23;13.15;;;;;;;1.72;100.00;102420.47;5014308;28;20091;-62
2023/01/03 00:19:52;;;;;;;21.25;12.85;;;;;;;1.37;100.00;102364.94;4996458;28;20504;-62
2023/01/03 00:22:17;;;;;;;20.83;13.25;;;;;;;1.33;100.00;102359.63;5014024;28;20042;-61
2023/01/03 00:24:44;;;;;;;23.77;13.32;;;;;;;1.67;100.00;102430.72;5014057;28;20038;-62
2023/01/03 00:27:10;;;;;;;21.25;12.07;;;;;;;1.65;100.00;102429.81;4996498;28;20037;-60
2023/01/03 00:29:36;;;;;;;21.13;13.38;;;;;;;1.60;100.00;102421.00;4996369;28;20536;-62
2023/01/03 00:32:01;;;;;;;21.08;12.88;;;;;;;1.58;100.00;102420.06;4996305;28;20057;-62
2023/01/03 00:34:27;;;;;;;22.95;12.18;;;;;;;1.27;100.00;102370.72;5013817;28;20029;-62
2023/01/03 00:36:52;;;;;;;20.30;13.18;;;;;;;1.64;100.00;102424.53;5013908;28;20029;-62
2023/01/03 00:39:18;;;;;;;22.50;13.35;;;;;;;1.46;100.00;102392.91;4996284;28;20052;-64
2023/01/03 00:41:43;;;;;;;27.58;13.70;;;;;;;1.65;100.00;102432.41;4996207;28;20061;-62
2023/01/03 00:44:08;;;;;;;21.52;13.07;;;;;;;1.67;100.00;102430.72;5013563;28;20137;-63
2023/01/03 00:46:34;;;;;;;21.95;13.10;;;;;;;1.54;100.00;102417.34;5013582;28;20056;-61
2023/01/03 00:49:00;;;;;;;20.90;12.77;;;;;;;1.62;100.00;102437.50;5013696;28;20096;-61
2023/01/03 00:51:27;;;;;;;20.95;13.45;;;;;;;1.63;100.00;102444.44;4996097;28;20030;-61
2023/01/03 00:53:55;;;;;;;22.48;13.82;;;;;;;1.30;100.00;102378.59;4979769;28;20037;-62
2023/01/03 00:56:21;;;;;;;18.77;13.57;;;;;;;1.26;100.00;102362.88;5013294;28;20034;-60
2023/01/03 00:58:47;;;;;;;23.30;14.55;;;;;;;1.57;100.00;102425.22;5013594;28;20033;-62
2023/01/03 01:01:18;;;;;;;25.38;14.68;;;;;;;1.67;100.00;102438.50;4979097;28;20038;-62
2023/01/03 01:03:45;;;;;;;;;;;;;;;1.73;100.00;102439.50;4995964;28;20033;-62
2023/01/03 01:06:13;;;;;;;25.90;14.15;;;;;;;1.75;100.00;102435.25;5012169;28;19917;-61
2023/01/03 01:08:39;;;;;;;21.77;14.25;;;;;;;1.75;100.00;102435.25;5013251;28;20034;-62
2023/01/03 01:11:04;;;;;;;22.23;13.75;;;;;;;1.71;100.00;102431.69;5013266;28;20045;-61
2023/01/03 01:13:31;;;;;;;25.92;13.98;;;;;;;1.53;100.00;102397.41;5012854;28;20064;-63
2023/01/03 01:16:17;;;;;;;23.30;13.55;;;;;;;1.70;100.00;102429.91;4995775;28;20034;-61
2023/01/03 01:18:46;;;;;;;21.85;12.77;;;;;;;1.44;100.00;102387.66;5013267;28;20378;-61
2023/01/03 01:21:13;;;;;;;19.80;14.05;;;;;;;1.34;100.00;102370.06;5012900;28;20484;-62
2023/01/03 01:23:40;;;;;;;21.77;13.90;;;;;;;1.52;100.00;102403.41;4995387;28;20474;-61
2023/01/03 01:26:06;;;;;;;27.02;15.02;;;;;;;1.33;100.00;102377.78;4978980;28;20065;-62
2023/01/03 01:28:32;;;;;;;23.02;13.35;;;;;;;1.64;100.00;102442.72;4995452;28;20038;-62
2023/01/03 01:30:59;;;;;;;24.90;14.25;;;;;;;1.24;100.00;102378.41;4995203;28;20042;-62
2023/01/03 01:33:24;;;;;;;25.25;14.27;;;;;;;1.59;100.00;102449.50;4995005;28;20555;-60
2023/01/03 01:35:49;;;;;;;25.73;13.60;;;;;;;1.30;100.00;102390.66;5012430;28;20050;-62
2023/01/03 01:38:15;;;;;;;22.90;13.43;;;;;;;1.22;100.00;102381.78;5012377;28;20076;-62
2023/01/03 01:40:40;;;;;;;22.95;14.60;;;;;;;1.65;100.00;102450.56;5012649;28;20069;-62
2023/01/03 01:46:10;;;;;;;28.10;15.90;;;;;;;1.82;100.00;102456.25;5012847;28;20116;-62
2023/01/03 01:48:35;;;;;;;21.98;15.35;;;;;;;1.52;100.00;102395.63;4995028;28;20030;-62
2023/01/03 01:51:01;;;;;;;23.77;14.88;;;;;;;1.63;100.00;102410.69;5012554;28;20044;-61
2023/01/03 01:53:32;;;;;;;25.38;14.95;;;;;;;1.89;100.00;102452.09;4994864;28;20044;-62
2023/01/03 01:56:08;;;;;;;24.33;16.10;;;;;;;1.87;100.00;102441.66;4995044;28;20092;-60
2023/01/03 01:58:36;;;;;;;25.88;14.95;;;;;;;1.73;100.00;102430.00;5012567;28;20487;-61
2023/01/03 02:01:03;;;;;;;25.13;14.38;;;;;;;1.86;100.00;102468.47;4994785;28;20045;-61
2023/01/03 02:03:29;;;;;;;21.27;13.48;;;;;;;1.76;100.00;102461.25;4994791;28;20037;-61
2023/01/03 02:05:55;;;;;;;27.02;15.23;;;;;;;1.49;100.00;102427.56;4994886;28;20172;-62
2023/01/03 02:08:21;;;;;;;22.38;13.38;;;;;;;1.70;100.00;102480.13;4994717;28;20038;-60
2023/01/03 02:11:04;;;;;;;23.20;14.90;;;;;;;1.70;100.00;102484.44;5012322;28;20030;-62
2023/01/03 02:13:41;;;;;;;22.40;13.88;;;;;;;1.56;100.00;102467.56;5011959;28;20373;-62
2023/01/03 02:16:25;;;;;;;21.23;14.07;;;;;;;1.58;100.00;102471.97;5012526;28;20044;-62
2023/01/03 02:19:03;;;;;;;22.05;14.85;;;;;;;1.51;100.00;102463.97;5016294;28;20072;-62
2023/01/03 02:21:35;;;;;;;24.25;14.95;;;;;;;1.48;100.00;102461.28;5016128;28;20393;-62
2023/01/03 02:24:13;;;;;;;26.20;15.13;;;;;;;1.44;100.00;102473.28;5016130;28;20062;-61
2023/01/03 02:26:48;;;;;;;24.55;14.68;;;;;;;1.39;100.00;102461.88;4982465;28;20491;-61
2023/01/03 02:29:40;;;;;;;26.17;14.85;;;;;;;1.34;100.00;102459.97;5016148;28;20060;-61
2023/01/03 02:32:35;;;;;;;28.65;15.48;;;;;;;0.87;100.00;102381.59;5015954;28;20447;-63
2023/01/03 02:35:11;;;;;;;24.40;14.13;;;;;;;1.18;100.00;102440.47;4965700;28;20056;-62
2023/01/03 02:37:52;;;;;;;37.28;15.82;;;;;;;1.17;100.00;102448.22;4998774;28;20061;-61
2023/01/03 02:40:17;;;;;;;;;;;;;;;1.21;100.00;102463.91;4998844;28;20381;-64
2023/01/03 02:43:04;;;;;;;21.97;14.47;;;;;;;1.15;100.00;102453.31;5015964;28;19913;-64
2023/01/03 02:45:42;;;;;;;32.00;15.65;;;;;;;1.07;100.00;102462.59;5016044;28;20376;-60
2023/01/03 02:48:14;;;;;;;28.50;16.38;;;;;;;1.05;100.00;102464.25;5016268;28;20123;-61
2023/01/03 02:50:46;;;;;;;27.92;15.70;;;;;;;0.63;100.00;102383.38;4998324;28;20026;-61
2023/01/03 02:53:13;;;;;;;28.38;15.85;;;;;;;0.99;100.00;102461.47;4998037;28;20129;-61
2023/01/03 02:55:39;;;;;;;36.00;17.42;;;;;;;0.92;100.00;102444.81;4998505;28;20092;-62
2023/01/03 02:58:08;;;;;;;39.30;17.35;;;;;;;0.90;100.00;102451.69;4998194;28;20026;-61
2023/01/03 03:00:40;;;;;;;31.55;16.48;;;;;;;0.52;100.00;102372.69;4997799;28;20026;-61
2023/01/03 03:03:10;;;;;;;34.60;16.65;;;;;;;0.56;100.00;102389.19;4998233;28;20038;-60
2023/01/03 03:06:01;;;;;;;37.90;16.63;;;;;;;0.56;100.00;102394.38;5015354;28;20030;-61
2023/01/03 03:08:26;;;;;;;35.85;16.65;;;;;;;0.84;100.00;102448.88;5014485;28;20129;-62
2023/01/03 03:13:50;;;;;;;31.55;16.98;;;;;;;0.81;100.00;102446.19;5000354;28;20464;-61
2023/01/03 03:24:48;;;;;;;35.88;18.20;;;;;;;0.78;100.00;102452.97;5000447;28;20079;-62
2023/01/03 03:24:51;;;;;;;37.42;18.77;;;;;;;0.81;100.00;102445.31;5015337;28;20084;-61
2023/01/03 03:30:08;;;;;;;43.60;19.35;;;;;;;0.28;100.00;102356.34;4999211;28;20401;-62
2023/01/03 03:32:35;;;;;;;39.47;21.00;;;;;;;0.56;100.00;102409.91;4996933;28;20040;-61
2023/01/03 03:35:02;;;;;;;48.45;20.77;;;;;;;0.74;100.00;102449.41;4997424;28;20076;-61
2023/01/03 03:37:28;;;;;;;44.67;21.73;;;;;;;0.22;100.00;102352.66;4997445;28;20034;-61
2023/01/03 03:45:53;;;;;;;79.88;26.55;;;;;;;0.65;100.00;102428.38;4999472;28;20100;-61
2023/01/03 03:49:36;;;;;;;59.17;24.73;;;;;;;0.24;100.00;102343.22;4996315;28;20030;-62
2023/01/03 03:51:22;;;;;;;84.38;28.55;;;;;;;0.37;100.00;102372.19;4999664;28;20542;-62
2023/01/03 03:53:49;;;;;;;73.70;27.70;;;;;;;0.70;100.00;102421.63;4996821;28;20025;-62
2023/01/03 03:56:16;;;;;;;75.80;30.17;;;;;;;0.70;100.00;102413.84;4980804;28;20373;-61
2023/01/03 03:58:43;;;;;;;151.65;35.53;;;;;;;0.74;100.00;102432.97;4996909;28;20026;-61
2023/01/03 04:01:12;;;;;;;79.45;29.15;;;;;;;0.74;100.00;102433.84;4996700;28;20535;-62
2023/01/03 04:03:40;;;;;;;78.78;30.25;;;;;;;0.43;100.00;102381.88;4980811;28;20046;-62
2023/01/03 04:06:28;;;;;;;79.18;29.15;;;;;;;0.36;100.00;102375.59;4996560;28;20559;-62
2023/01/03 04:08:54;;;;;;;96.13;34.85;;;;;;;0.79;100.00;102459.94;5013240;28;20044;-62
2023/01/03 04:11:19;;;;;;;97.00;35.85;;;;;;;0.83;100.00;102457.47;4996530;28;20117;-61
2023/01/03 04:13:44;;;;;;;109.10;36.83;;;;;;;0.42;100.00;102380.09;5014152;28;20038;-61
2023/01/03 04:16:10;;;;;;;105.55;39.03;;;;;;;0.71;100.00;102419.91;5014204;28;20079;-61
2023/01/03 04:18:36;;;;;;;100.93;37.70;;;;;;;0.63;100.00;102409.31;5014159;28;20117;-59
2023/01/03 04:21:01;;;;;;;99.00;39.80;;;;;;;0.63;100.00;102392.88;4996225;28;20037;-61
2023/01/03 04:23:26;;;;;;;123.32;41.38;;;;;;;0.98;100.00;102454.50;4996187;28;20569;-61
2023/01/03 04:25:52;;;;;;;113.45;43.00;;;;;;;0.72;100.00;102406.13;5013866;28;20034;-61
2023/01/03 04:28:17;;;;;;;109.40;42.45;;;;;;;0.63;100.00;102379.91;4996512;28;20461;-60
2023/01/03 04:30:43;;;;;;;135.95;47.80;;;;;;;0.67;100.00;102385.25;4996284;28;20038;-61
2023/01/03 04:33:09;;;;;;;124.82;46.33;;;;;;;1.10;100.00;102460.09;4996165;28;20079;-61
2023/01/03 04:35:34;;;;;;;117.18;46.67;;;;;;;0.98;100.00;102423.41;4996218;28;20029;-60
2023/01/03 04:38:00;;;;;;;126.60;47.28;;;;;;;0.69;100.00;102374.94;5013639;28;20152;-61
2023/01/03 04:40:25;;;;;;;130.27;47.33;;;;;;;1.02;100.00;102425.25;4996224;28;20450;-61
2023/01/03 04:45:35;;;;;;;119.55;48.40;;;;;;;1.10;100.00;102452.31;4998997;28;20052;-61
2023/01/03 04:48:01;;;;;;;142.93;51.22;;;;;;;0.10;100.00;102271.97;5013274;28;20392;-61
2023/01/03 04:50:28;;;;;;;150.20;52.38;;;;;;;0.67;100.00;102376.59;5013788;28;20037;-61
2023/01/03 04:52:53;;;;;;;140.68;50.28;;;;;;;1.01;100.00;102436.47;5013734;28;20037;-62
2023/01/03 04:55:18;;;;;;;136.68;50.50;;;;;;;0.75;100.00;102401.03;4995968;28;20034;-61
2023/01/03 04:57:44;;;;;;;143.70;49.53;;;;;;;0.68;100.00;102397.38;5013697;28;20056;-61
2023/01/03 05:00:10;;;;;;;118.90;48.60;;;;;;;1.03;100.00;102440.84;5012786;28;20042;-60
2023/01/03 05:02:35;;;;;;;128.52;49.85;;;;;;;1.02;100.00;102446.00;5013753;28;20064;-61
2023/01/03 05:05:01;;;;;;;140.80;52.47;;;;;;;1.05;100.00;102443.50;5013141;28;20034;-60
2023/01/03 05:07:27;;;;;;;150.90;53.13;;;;;;;1.06;100.00;102448.72;4995825;28;20033;-61
2023/01/03 05:09:52;;;;;;;110.57;48.80;;;;;;;1.13;100.00;102429.06;5013379;28;20036;-61
2023/01/03 05:12:18;;;;;;;135.52;52.88;;;;;;;1.17;100.00;102435.25;5013325;28;20416;-62
2023/01/03 05:14:43;;;;;;;116.03;50.88;;;;;;;1.20;100.00;102430.16;5012849;28;20464;-60
2023/01/03 05:17:08;;;;;;;137.20;52.22;;;;;;;0.88;100.00;102378.16;5013030;28;20034;-61
2023/01/03 05:25:48;;;;;;;127.78;52.55;;;;;;;0.89;100.00;102366.94;5013229;28;20070;-63
2023/01/03 05:27:48;;;;;;;113.72;53.88;;;;;;;1.29;100.00;102420.03;5012943;28;20119;-60
2023/01/03 05:30:13;;;;;;;117.43;56.63;;;;;;;1.45;100.00;102430.03;5013103;28;20124;-60
2023/01/03 05:32:38;;;;;;;117.47;56.00;;;;;;;1.58;100.00;102437.34;5012877;28;20080;-61
2023/01/03 05:35:04;;;;;;;109.80;56.38;;;;;;;1.56;100.00;102400.97;5012732;28;20042;-60
2023/01/03 05:37:29;;;;;;;117.40;57.78;;;;;;;1.39;100.00;102350.31;5012633;28;20029;-61
2023/01/03 05:39:55;;;;;;;102.68;55.97;;;;;;;1.64;100.00;102357.06;5012434;28;20034;-60
2023/01/03 05:42:20;;;;;;;133.82;64.18;;;;;;;1.85;100.00;102365.44;5012567;28;20038;-62
2023/01/03 05:44:45;;;;;;;128.18;62.17;;;;;;;1.86;100.00;102353.34;5012797;28;20073;-61
2023/01/03 05:47:11;;;;;;;141.77;66.25;;;;;;;1.99;100.00;102353.72;4995272;28;20041;-62
2023/01/03 05:49:36;;;;;;;141.50;67.25;;;;;;;2.37;100.00;102392.78;4995147;28;20038;-62
2023/01/03 05:52:01;;;;;;;136.18;66.45;;;;;;;2.22;100.00;102342.19;4994345;28;20038;-60
2023/01/03 05:54:27;;;;;;;128.05;65.25;;;;;;;2.63;100.00;102403.00;4995283;28;20041;-62
2023/01/03 05:56:52;;;;;;;126.68;64.28;;;;;;;2.70;100.00;102404.03;5012593;28;20042;-65
2023/01/03 05:59:18;;;;;;;138.55;67.15;;;;;;;2.76;100.00;102410.28;5012522;28;20057;-61
2023/01/03 06:01:44;;;;;;;138.05;66.60;;;;;;;2.75;100.00;102400.72;5011802;28;20042;-62
2023/01/03 06:04:09;;;;;;;132.18;64.30;;;;;;;2.72;100.00;102389.34;4994960;28;20053;-62
2023/01/03 06:06:34;;;;;;;119.63;61.88;;;;;;;2.48;100.00;102336.78;5012022;28;20037;-64
2023/01/03 06:09:00;;;;;;;117.05;62.30;;;;;;;2.89;100.00;102400.19;5012219;28;20551;-61
2023/01/03 06:11:25;;;;;;;121.18;63.45;;;;;;;2.82;100.00;102397.44;4998305;28;20038;-61
2023/01/03 06:13:51;;;;;;;102.47;57.65;;;;;;;2.62;100.00;102359.69;4999659;28;20037;-61
2023/01/03 06:19:03;;;;;;;133.88;63.47;;;;;;;2.79;100.00;102352.25;5011191;28;20738;-61
2023/01/03 06:21:29;;;;;;;119.80;63.95;;;;;;;3.16;100.00;102417.28;5012262;28;20037;-61
2023/01/03 06:23:54;;;;;;;125.50;63.53;;;;;;;3.17;100.00;102428.56;5012274;28;20103;-62
2023/01/03 06:26:21;;;;;;;112.90;62.30;;;;;;;3.18;100.00;102419.94;5012228;28;20034;-63
2023/01/03 06:28:47;;;;;;;104.10;59.88;;;;;;;3.09;100.00;102406.72;5008815;28;20076;-61
2023/01/03 06:31:12;;;;;;;110.90;60.58;;;;;;;2.86;100.00;102376.69;5012351;28;20046;-62
2023/01/03 06:33:38;;;;;;;110.97;59.97;;;;;;;2.87;100.00;102370.63;4977594;28;20037;-63
2023/01/03 06:36:06;;;;;;;136.73;63.25;;;;;;;2.82;100.00;102367.94;4994404;28;20030;-63
2023/01/03 06:38:31;;;;;;;106.68;58.25;;;;;;;3.24;100.00;102440.91;5012012;28;20113;-62
2023/01/03 06:40:57;;;;;;;101.65;57.40;;;;;;;2.77;100.00;102339.22;5012195;28;20113;-61
2023/01/03 06:43:22;;;;;;;109.38;58.05;;;;;;;3.30;100.00;102404.56;5011294;28;20429;-61
2023/01/03 06:54:02;;;;;;;106.13;53.65;;;;;;;3.55;100.00;102395.59;4997171;28;20052;-61
2023/01/03 06:56:27;;;;;;;93.80;52.75;;;;;;;3.18;100.00;102326.28;5012004;28;20034;-61
2023/01/03 06:58:53;;;;;;;91.07;51.40;;;;;;;3.17;100.00;102328.00;5012059;28;20397;-60
2023/01/03 07:01:19;;;;;;;93.32;49.45;;;;;;;3.64;100.00;102417.50;4993900;28;20551;-62
2023/01/03 07:03:44;;;;;;;95.28;48.03;;;;;;;3.34;100.00;102344.84;4996382;28;20116;-61
2023/01/03 07:06:09;;;;;;;83.50;45.47;;;;;;;3.61;100.00;102387.91;5015659;28;20541;-61
2023/01/03 07:08:35;;;;;;;81.82;46.05;;;;;;;3.74;100.00;102409.00;5015745;28;20045;-62
2023/01/03 07:11:00;;;;;;;78.32;43.63;;;;;;;3.78;100.00;102413.44;5015334;28;20057;-64
2023/01/03 07:16:17;;;;;;;77.38;44.97;;;;;;;3.79;100.00;102396.97;5000888;28;20563;-61
2023/01/03 07:18:43;;;;;;;81.22;44.08;;;;;;;3.51;100.00;102342.56;4997939;28;20393;-61
2023/01/03 07:21:08;;;;;;;82.60;43.95;;;;;;;3.90;100.00;102426.72;4997494;28;20045;-62
2023/01/03 07:23:34;;;;;;;82.00;44.22;;;;;;;3.77;100.00;102401.25;4997767;28;20076;-61
2023/01/03 07:25:59;;;;;;;79.97;44.65;;;;;;;3.44;100.00;102332.00;5015119;28;20034;-61
2023/01/03 07:28:25;;;;;;;69.88;42.85;;;;;;;3.83;100.00;102396.16;5014761;28;20137;-61
2023/01/03 07:30:50;;;;;;;87.82;42.00;;;;;;;3.90;100.00;102412.81;5015258;28;20129;-62
2023/01/03 07:33:16;;;;;;;78.93;42.40;;;;;;;3.94;100.00;102419.84;5015274;28;20056;-60
2023/01/03 07:35:41;;;;;;;63.15;38.25;;;;;;;3.53;100.00;102324.38;5014948;28;20038;-60
2023/01/03 07:38:08;;;;;;;77.35;42.10;;;;;;;3.55;100.00;102323.56;5014477;28;20052;-61
2023/01/03 07:40:34;;;;;;;74.63;42.70;;;;;;;3.93;100.00;102398.13;5014767;28;20393;-62
2023/01/03 07:45:44;;;;;;;85.45;41.70;;;;;;;3.87;100.00;102398.00;5014928;28;20057;-61
2023/01/03 07:48:09;;;;;;;83.00;43.42;;;;;;;3.60;100.00;102340.16;5014432;28;20029;-62
2023/01/03 07:50:36;;;;;;;84.07;41.90;;;;;;;3.61;100.00;102335.81;4996772;28;20053;-60
2023/01/03 07:53:01;;;;;;;81.95;41.60;;;;;;;3.87;100.00;102400.59;4996916;28;20038;-60
2023/01/03 07:55:27;;;;;;;76.13;39.63;;;;;;;4.07;100.00;102410.53;5013638;28;20484;-60
2023/01/03 07:57:54;;;;;;;78.00;41.15;;;;;;;4.04;100.00;102402.63;4996954;28;20461;-61
2023/01/03 08:00:19;;;;;;;75.35;38.38;;;;;;;4.19;100.00;102408.16;4996907;28;20052;-62
2023/01/03 08:02:45;;;;;;;69.93;39.25;;;;;;;4.15;100.00;102407.19;4996970;28;20481;-62
2023/01/03 08:05:10;;;;;;;76.18;39.13;;;;;;;3.80;100.00;102345.75;5013780;28;20044;-62
2023/01/03 08:07:35;;;;;;;80.18;40.45;;;;;;;4.26;100.00;102418.69;5014384;28;20111;-62
2023/01/03 08:15:29;;;;;;;87.32;41.35;;;;;;;4.30;100.00;102410.09;5013728;28;20048;-59
2023/01/03 08:17:54;;;;;;;89.93;46.38;;;;;;;3.96;100.00;102356.50;5014437;28;20034;-60
2023/01/03 08:20:19;;;;;;;260.33;122.22;;;;;;;4.01;100.00;102340.94;5014000;28;20065;-60
2023/01/03 08:22:44;;;;;;;309.67;139.90;;;;;;;4.49;100.00;102422.59;5013885;28;20057;-62
2023/01/03 08:25:10;;;;;;;97.43;50.60;;;;;;;4.14;100.00;102347.25;4996308;28;20076;-61
2023/01/03 08:27:35;;;;;;;90.28;43.95;;;;;;;3.99;100.00;102327.00;5014056;28;20117;-62
2023/01/03 08:30:01;;;;;;;90.85;44.60;;;;;;;4.55;100.00;102414.88;5013956;28;20095;-61
2023/01/03 08:32:26;;;;;;;87.03;44.75;;;;;;;4.39;100.00;102367.66;4996149;28;20084;-61
2023/01/03 08:34:53;;;;;;;92.10;45.15;;;;;;;4.77;100.00;102429.19;4996384;28;20044;-61
2023/01/03 08:37:18;;;;;;;89.35;44.80;;;;;;;4.69;100.00;102409.03;5013550;28;20370;-61
2023/01/03 08:39:56;;;;;;;85.22;44.13;;;;;;;4.48;100.00;102353.06;4996281;28;20049;-60
2023/01/03 08:42:22;;;;;;;87.18;43.22;;;;;;;4.38;100.00;102335.50;4996255;28;20314;-60
2023/01/03 08:44:51;;;;;;;89.80;43.45;;;;;;;4.97;100.00;102432.09;5013527;28;20042;-61
2023/01/03 08:47:17;;;;;;;93.25;48.50;;;;;;;4.55;100.00;102341.88;5013476;28;20045;-61
2023/01/03 08:49:42;;;;;;;92.35;44.80;;;;;;;4.64;100.00;102354.16;4995935;28;20393;-62
2023/01/03 08:52:08;;;;;;;80.03;43.70;;;;;;;5.10;100.00;102427.13;5013434;28;20488;-60
2023/01/03 08:54:34;;;;;;;95.32;46.10;;;;;;;4.77;100.00;102360.47;5013675;28;20026;-62
2023/01/03 08:56:59;;;;;;;93.93;46.60;;;;;;;5.12;100.00;102408.84;4995269;28;20109;-61
2023/01/03 08:59:24;;;;;;;84.20;42.17;;;;;;;5.26;100.00;102414.25;5013656;28;20030;-62
2023/01/03 09:01:50;;;;;;;94.78;45.10;;;;;;;5.27;100.00;102413.41;5013212;28;20050;-61
2023/01/03 09:04:15;;;;;;;86.07;43.47;;;;;;;5.32;100.00;102417.84;4995669;28;20041;-59
2023/01/03 09:06:40;;;;;;;86.35;44.85;;;;;;;5.33;100.00;102422.22;4995629;28;20428;-59
2023/01/03 09:09:07;;;;;;;87.97;43.95;;;;;;;5.34;100.00;102407.44;5013316;28;20125;-62
2023/01/03 09:11:32;;;;;;;90.43;45.95;;;;;;;5.39;100.00;102417.09;5013663;28;20120;-60
2023/01/03 09:13:58;;;;;;;95.43;46.42;;;;;;;4.91;100.00;102332.84;4995639;28;20466;-60
2023/01/03 09:16:23;;;;;;;95.85;46.40;;;;;;;5.46;100.00;102413.69;5012139;28;20401;-61
2023/01/03 09:18:48;;;;;;;91.03;46.25;;;;;;;5.44;100.00;102404.06;5012173;28;20126;-60
2023/01/03 09:21:14;;;;;;;88.25;46.35;;;;;;;5.52;100.00;102411.16;5012934;28;20041;-61
2023/01/03 09:23:39;;;;;;;98.15;47.03;;;;;;;5.57;100.00;102422.53;5011604;28;20034;-60
2023/01/03 09:26:05;;;;;;;90.88;46.75;;;;;;;5.14;100.00;102333.19;5010885;28;20104;-59
2023/01/03 09:28:31;;;;;;;96.45;46.35;;;;;;;5.51;100.00;102403.31;4995159;28;20125;-59
2023/01/03 09:30:57;;;;;;;92.40;47.22;;;;;;;5.67;100.00;102418.31;5012768;28;20472;-59
2023/01/03 09:33:22;;;;;;;85.60;46.15;;;;;;;5.71;100.00;102417.50;4995009;28;20061;-59
2023/01/03 09:35:47;;;;;;;86.93;44.30;;;;;;;5.74;100.00;102407.09;5012752;28;20052;-61
2023/01/03 09:38:13;;;;;;;89.70;46.00;;;;;;;5.77;100.00;102393.19;5012954;28;20107;-62
2023/01/03 09:40:40;;;;;;;88.80;44.20;;;;;;;5.62;100.00;102357.31;5012861;28;20081;-61
2023/01/03 09:43:13;;;;;;;79.82;44.70;;;;;;;5.96;100.00;102421.31;4995046;28;20026;-60
2023/01/03 09:45:45;;;;;;;84.00;44.35;;;;;;;6.01;100.00;102406.56;5012369;28;20045;-60
2023/01/03 09:48:16;;;;;;;86.95;45.65;;;;;;;5.84;100.00;102377.59;5012453;28;20042;-61
2023/01/03 09:50:42;;;;;;;;;;;;;;;6.11;100.00;102417.13;5012910;28;20041;-60
2023/01/03 10:05:26;;;;;;;;;;;;;;;6.32;100.00;102424.34;4997781;28;20095;-63
2023/01/03 10:08:01;;;;;;;78.28;40.42;;;;;;;6.38;100.00;102431.38;4994786;28;19913;-61
2023/01/03 10:10:38;;;;;;;72.10;39.20;;;;;;;6.45;100.00;102439.28;5012366;28;20500;-61
2023/01/03 10:13:09;;;;;;;67.97;39.67;;;;;;;6.46;100.00;102421.84;5012134;28;20487;-62
2023/01/03 10:15:53;;;;;;;;;;;;;;;6.52;100.00;102414.94;5013020;28;20389;-62
2023/01/03 10:18:24;;;;;;;75.55;39.80;;;;;;;6.49;100.00;102429.72;5012319;28;19997;-60
2023/01/03 10:20:56;;;;;;;76.30;40.22;;;;;;;6.06;100.00;102345.63;5012229;28;20157;-60
2023/01/03 10:23:22;;;;;;;65.85;38.08;;;;;;;6.05;100.00;102322.97;4994632;28;20026;-62
2023/01/03 10:25:47;;;;;;;68.60;37.22;;;;;;;6.24;100.00;102360.63;5012367;28;20286;-58
2023/01/03 10:28:17;;;;;;;73.60;37.13;;;;;;;6.59;100.00;102427.22;5011978;28;20034;-60
2023/01/03 10:31:13;;;;;;;74.93;37.92;;;;;;;6.65;100.00;102452.56;4994320;28;20030;-58
2023/01/03 10:33:44;;;;;;;70.57;35.33;;;;;;;6.61;100.00;102433.34;5012044;28;20489;-59
2023/01/03 10:36:10;;;;;;;66.97;34.65;;;;;;;6.28;100.00;102372.84;5011998;28;20362;-59
2023/01/03 10:38:36;;;;;;;62.78;35.20;;;;;;;6.14;100.00;102346.59;4996001;28;20060;-62
2023/01/03 10:41:03;;;;;;;66.80;35.35;;;;;;;6.28;100.00;102377.19;5015865;28;20381;-60
2023/01/03 10:43:37;;;;;;;60.45;36.10;;;;;;;6.59;100.00;102424.59;5015733;28;20049;-60
2023/01/03 10:46:13;;;;;;;64.55;36.40;;;;;;;6.64;100.00;102442.94;5015784;28;20034;-61
2023/01/03 10:48:40;;;;;;;66.65;34.97;;;;;;;6.65;100.00;102426.41;4997832;28;20034;-59
2023/01/03 10:51:22;;;;;;;57.83;37.05;;;;;;;6.44;100.00;102377.38;5015771;28;20041;-62
2023/01/03 10:53:49;;;;;;;67.05;36.60;;;;;;;6.70;100.00;102428.19;5015722;28;20540;-60
2023/01/03 10:56:15;;;;;;;63.38;34.80;;;;;;;6.49;100.00;102348.63;4997089;28;20069;-61
2023/01/03 10:58:41;;;;;;;62.05;36.33;;;;;;;6.48;100.00;102355.59;5015645;28;20076;-61
2023/01/03 11:01:23;;;;;;;69.25;36.47;;;;;;;6.49;100.00;102340.78;5015248;28;20447;-61
2023/01/03 11:04:17;;;;;;;63.67;34.47;;;;;;;6.95;100.00;102412.66;4998386;28;20044;-63
2023/01/03 11:06:56;;;;;;;59.60;34.88;;;;;;;6.51;100.00;102329.47;5009160;28;20045;-60
2023/01/03 11:09:22;;;;;;;59.90;34.80;;;;;;;6.99;100.00;102399.63;5015415;28;20034;-62
2023/01/03 11:11:53;;;;;;;45.08;32.63;;;;;;;6.67;100.00;102320.88;4998152;28;20037;-61
2023/01/03 11:14:25;;;;;;;53.35;32.08;;;;;;;7.18;100.00;102398.88;5015329;28;20030;-62
2023/01/03 11:17:00;;;;;;;;;;;;;;;7.31;100.00;102391.97;5015682;28;20117;-62
2023/01/03 11:19:28;;;;;;;51.35;31.45;;;;;;;6.77;100.00;102287.81;4997746;28;19909;-61
2023/01/03 11:22:00;;;;;;;46.92;30.48;;;;;;;6.89;100.00;102314.03;5014946;28;20034;-62
2023/01/03 11:24:59;;;;;;;46.10;30.65;;;;;;;7.27;100.00;102387.56;4997504;28;20532;-59
2023/01/03 11:28:16;;;;;;;46.28;29.63;;;;;;;7.36;100.00;102385.00;5015239;28;20026;-62
2023/01/03 11:31:07;;;;;;;48.55;28.08;;;;;;;7.40;100.00;102372.81;4981714;28;20385;-60
2023/01/03 11:33:54;;;;;;;42.75;28.13;;;;;;;7.40;100.00;102375.41;4997709;28;20057;-60
2023/01/03 11:36:58;;;;;;;42.20;28.30;;;;;;;7.38;100.00;102371.94;5014931;28;20034;-61
2023/01/03 11:39:50;;;;;;;33.47;24.58;;;;;;;6.93;100.00;102288.75;4997466;28;20026;-59
2023/01/03 11:42:21;;;;;;;37.80;25.75;;;;;;;7.45;100.00;102371.94;5014571;28;20036;-59
2023/01/03 11:44:49;;;;;;;;;;;;;;;7.51;100.00;102358.88;5015264;28;20052;-61
2023/01/03 11:47:34;;;;;;;36.78;23.55;;;;;;;7.52;100.00;102347.53;5015025;28;19953;-60
2023/01/03 11:50:10;;;;;;;33.78;22.83;;;;;;;7.58;100.00;102357.16;5013844;28;20120;-61
2023/01/03 11:52:50;;;;;;;36.42;23.35;;;;;;;7.30;100.00;102295.91;5014556;28;20034;-62
2023/01/03 11:55:25;;;;;;;30.45;21.02;;;;;;;7.70;100.00;102337.13;4996880;28;20034;-62
2023/01/03 11:58:05;;;;;;;29.83;19.02;;;;;;;7.73;100.00;102344.13;5014555;28;20129;-61
2023/01/03 12:01:08;;;;;;;25.10;18.20;;;;;;;7.83;100.00;102338.03;5014331;28;20026;-61
2023/01/03 12:03:52;;;;;;;23.65;16.95;;;;;;;7.81;100.00;102334.53;5014411;28;20104;-61
2023/01/03 12:06:36;;;;;;;23.27;16.75;;;;;;;7.79;100.00;102325.78;5014354;28;20048;-62
2023/01/03 12:09:25;;;;;;;18.42;15.80;;;;;;;7.83;100.00;102328.41;5014442;28;20079;-62
2023/01/03 12:12:11;;;;;;;23.42;14.55;;;;;;;7.86;100.00;102324.91;5013826;28;20057;-63
2023/01/03 12:14:55;;;;;;;18.25;14.88;;;;;;;7.84;100.00;102313.56;5014472;28;20030;-61
2023/01/03 12:17:47;;;;;;;22.10;14.35;;;;;;;7.91;100.00;102320.56;4996516;28;20022;-60
2023/01/03 12:20:13;;;;;;;20.73;14.77;;;;;;;7.92;100.00;102314.44;4996559;28;20440;-61
2023/01/03 12:23:14;;;;;;;19.33;14.98;;;;;;;7.96;100.00;102316.22;4996280;28;20042;-61